Data for 09/04/2009

Time Sea-Level Adjusted Pressure Absolute Pressure Temperature Relative Humidity Dew Point   
(mb) (inHg) (mb) (inHg) (C) (F) (%) (C) (F)
00:05 1019 30.09 848 25.04 17.2 62.9 44 4.8 40.6
00:10 1019 30.09 848 25.04 16.6 61.9 46 5 41
00:15 1019 30.09 848 25.04 16.3 61.3 44 4.2 39.6
00:20 1019 30.09 848 25.04 16.4 61.5 43 4 39.2
00:25 1019 30.09 848 25.04 16.5 61.6 46 4.9 40.8
00:30 1019 30.09 848 25.04 16.2 61.1 45 4.4 39.9
00:35 1019 30.09 848 25.04 16.4 61.6 42 3.4 38.2
00:40 1019 30.09 848 25.04 16.8 62.3 41 3.7 38.7
00:45 1019 30.09 848 25.04 16.9 62.4 41 3.7 38.6
00:50 1019 30.09 849 25.07 16.8 62.2 41 3.5 38.3
00:55 1019 30.09 849 25.07 16.9 62.4 42 4.2 39.5
01:00 1019 30.09 849 25.07 17 62.6 45 5.1 41.2
01:05 1020 30.12 849 25.07 17.2 62.9 39 3.3 37.9
01:10 1020 30.12 849 25.07 17.4 63.4 37 2.8 37.1
01:15 1020 30.12 849 25.07 17.6 63.7 37 2.9 37.2
01:20 1020 30.12 849 25.07 17.9 64.1 38 3.5 38.3
01:25 1020 30.12 849 25.07 17.6 63.7 41 4.4 39.9
01:30 1020 30.12 849 25.07 16.8 62.2 42 3.8 38.8
01:35 1020 30.12 849 25.07 17.2 62.9 43 4.6 40.3
01:40 1020 30.12 849 25.07 16.5 61.6 47 5.3 41.5
01:45 1020 30.12 849 25.07 15.5 59.8 50 5.1 41.2
01:50 1020 30.12 849 25.07 15.6 60 50 5.3 41.6
01:55 1020 30.12 849 25.07 15.6 60.1 53 6.1 43
02:00 1020 30.12 849 25.07 15.5 59.9 49 4.8 40.7
02:05 1020 30.12 849 25.07 15.2 59.4 48 4.5 40.1
02:10 1020 30.12 849 25.07 15.5 59.8 49 4.9 40.9
02:15 1020 30.12 849 25.07 15.7 60.2 46 4.2 39.6
02:20 1020 30.12 849 25.07 15.6 60.1 50 5.3 41.6
02:25 1020 30.12 849 25.07 15.2 59.4 50 4.9 40.9
02:30 1020 30.12 849 25.07 15.2 59.4 50 5.1 41.2
02:35 1020 30.12 849 25.07 15.2 59.4 47 4.2 39.5
02:40 1020 30.12 849 25.07 15.2 59.3 48 4.2 39.6
02:45 1020 30.12 849 25.07 15 59.1 48 4.2 39.5
02:50 1020 30.12 849 25.07 14.9 58.8 48 4.2 39.5
02:55 1020 30.12 849 25.07 14.9 58.7 48 4.1 39.3
03:00 1020 30.12 849 25.07 14.8 58.6 49 4.4 39.9
03:05 1020 30.12 849 25.07 14.3 57.7 52 4.6 40.3
03:10 1020 30.12 849 25.07 13.9 57 53 4.6 40.3
03:15 1020 30.12 849 25.07 13.8 56.9 52 4.3 39.7
03:20 1020 30.12 849 25.07 14.3 57.7 46 2.9 37.2
03:25 1020 30.12 849 25.07 15.3 59.5 43 3 37.4
03:30 1020 30.12 849 25.07 15.9 60.6 42 3.2 37.8
03:35 1020 30.12 849 25.07 15.7 60.3 44 3.6 38.5
03:40 1020 30.12 849 25.07 15.4 59.6 44 3.3 38
03:45 1020 30.12 849 25.07 15.5 59.9 44 3.4 38.1
03:50 1020 30.12 849 25.07 15.7 60.2 43 3.1 37.5
03:55 1020 30.12 849 25.07 15.9 60.5 42 3.1 37.6
04:00 1020 30.12 849 25.07 15.7 60.2 44 3.5 38.2
04:05 1020 30.12 849 25.07 15.3 59.5 44 3.2 37.8
04:10 1020 30.12 849 25.07 15.4 59.7 44 3.2 37.8
04:15 1020 30.12 849 25.07 15.5 59.8 44 3.4 38.1
04:20 1020 30.12 849 25.07 15.2 59.3 45 3.3 38
04:25 1020 30.12 849 25.07 15.2 59.4 44 3.2 37.7
04:30 1020 30.12 849 25.07 15.2 59.3 44 3.2 37.8
04:35 1020 30.12 849 25.07 15.4 59.7 43 2.8 37.1
04:40 1020 30.12 849 25.07 15.5 59.8 46 3.9 39
04:45 1020 30.12 849 25.07 14.8 58.6 47 3.7 38.6
04:50 1020 30.12 849 25.07 14.5 58.1 47 3.5 38.3
04:55 1020 30.12 849 25.07 14.6 58.2 48 3.7 38.7
05:00 1020 30.12 849 25.07 14.3 57.7 51 4.2 39.6
05:05 1020 30.12 849 25.07 13.6 56.4 52 4.1 39.4
05:10 1020 30.12 849 25.07 13.4 56 52 3.8 38.9
05:15 1020 30.12 849 25.07 13.8 56.8 50 3.6 38.4
05:20 1020 30.12 849 25.07 13.8 56.9 51 3.9 39.1
05:25 1020 30.12 849 25.07 13.6 56.4 53 4.2 39.5
05:30 1020 30.12 849 25.07 13.3 56 53 4.1 39.3
05:35 1020 30.12 849 25.07 13.2 55.7 54 4 39.3
05:40 1020 30.12 849 25.07 13 55.3 56 4.3 39.8
05:45 1020 30.12 849 25.07 13 55.3 54 4 39.2
05:50 1020 30.12 849 25.07 12.9 55.2 55 4.3 39.7
05:55 1020 30.12 849 25.07 12.6 54.6 57 4.3 39.8
06:00 1020 30.12 849 25.07 12.3 54.1 58 4.2 39.6
06:05 1020 30.12 849 25.07 12.3 54.1 57 4 39.1
06:10 1020 30.12 849 25.07 12.4 54.2 57 4.1 39.5
06:15 1020 30.12 850 25.1 12.2 54 58 4.2 39.5
06:20 1020 30.12 850 25.1 11.8 53.3 59 4.2 39.5
06:25 1020 30.12 850 25.1 11.7 53.1 58 3.7 38.7
06:30 1020 30.12 850 25.1 12.5 54.5 53 3.3 38
06:35 1020 30.12 850 25.1 12.6 54.7 54 3.6 38.5
06:40 1021 30.15 850 25.1 12.5 54.6 54 3.6 38.4
06:45 1021 30.15 850 25.1 12.4 54.2 56 3.8 38.8
06:50 1021 30.15 850 25.1 12.2 53.9 56 3.7 38.6
06:55 1021 30.15 850 25.1 12.3 54.1 54 3.4 38.1
07:00 1021 30.15 850 25.1 12.6 54.7 53 3.4 38.1
07:05 1021 30.15 850 25.1 12.6 54.7 55 3.8 38.9
07:10 1021 30.15 850 25.1 12.1 53.9 56 3.7 38.7
07:15 1021 30.15 850 25.1 12.1 53.8 55 3.3 38
07:20 1021 30.15 850 25.1 12.4 54.3 57 4.1 39.3
07:25 1021 30.15 850 25.1 12.5 54.6 56 3.9 39.1
07:30 1021 30.15 850 25.1 12.3 54.1 57 4.2 39.5
07:35 1021 30.15 850 25.1 11.8 53.2 61 4.4 40
07:40 1021 30.15 850 25.1 11.6 52.9 60 4.1 39.4
07:45 1021 30.15 850 25.1 11.8 53.2 60 4.3 39.7
07:50 1021 30.15 850 25.1 12.1 53.8 58 4.2 39.6
07:55 1021 30.15 850 25.1 12.2 54 59 4.6 40.2
08:00 1021 30.15 850 25.1 12.6 54.6 58 4.5 40
08:05 1021 30.15 850 25.1 12.8 55 57 4.6 40.3
08:10 1021 30.15 850 25.1 13.1 55.6 56 4.5 40.1
08:15 1021 30.15 851 25.13 13.8 56.9 52 4.2 39.6
08:20 1021 30.15 851 25.13 14.2 57.5 52 4.5 40.1
08:25 1021 30.15 851 25.13 14.6 58.3 50 4.5 40.2
08:30 1021 30.15 851 25.13 15.4 59.6 51 5.5 41.8
08:35 1021 30.15 851 25.13 16.1 61 49 5.5 41.9
08:40 1021 30.15 851 25.13 16.5 61.7 50 6.1 43
08:45 1021 30.15 851 25.13 16.6 61.9 49 6.1 42.9
08:50 1021 30.15 850 25.1 16.7 62.1 48 5.6 42.1
08:55 1021 30.15 850 25.1 16.6 61.9 47 5.3 41.6
09:00 1021 30.15 850 25.1 17.3 63.2 47 5.9 42.6
09:05 1021 30.15 851 25.13 17.6 63.6 46 5.8 42.5
09:10 1021 30.15 851 25.13 17.8 64.1 44 5.5 41.9
09:15 1021 30.15 850 25.1 18.6 65.6 42 5.7 42.2
09:20 1021 30.15 850 25.1 19.4 67 40 5.6 42.1
09:25 1021 30.15 850 25.1 19.5 67.1 43 6.7 44.1
09:30 1021 30.15 850 25.1 19.6 67.3 39 5.5 42
09:35 1021 30.15 850 25.1 20.6 69 37 5.5 41.8
09:40 1021 30.15 850 25.1 20.7 69.2 37 5.5 41.9
09:45 1021 30.15 850 25.1 20.2 68.4 39 5.9 42.6
09:50 1021 30.15 851 25.13 19.6 67.4 40 6 42.7
09:55 1021 30.15 851 25.13 19.3 66.7 40 5.7 42.2
10:00 1021 30.15 851 25.13 20.4 68.7 37 5.4 41.8
10:05 1021 30.15 850 25.1 20.8 69.5 36 5.4 41.8
10:10 1021 30.15 850 25.1 21.1 70 34 4.8 40.7
10:15 1021 30.15 851 25.13 21.1 70 35 5.2 41.4
10:20 1021 30.15 851 25.13 21.8 71.3 33 5 41.1
10:25 1021 30.15 851 25.13 22.1 71.7 33 5.2 41.4
10:30 1021 30.15 851 25.13 21.9 71.4 33 5.1 41.1
10:35 1021 30.15 851 25.13 21.9 71.3 33 5.1 41.2
10:40 1022 30.18 851 25.13 22.1 71.7 34 5.5 41.9
10:45 1022 30.18 851 25.13 21.7 71.1 35 6 42.7
10:50 1022 30.18 851 25.13 22.1 71.8 34 5.8 42.4
10:55 1022 30.18 851 25.13 21.8 71.3 35 6 42.8
11:00 1022 30.18 851 25.13 21.8 71.3 35 5.8 42.5
11:05 1022 30.18 851 25.13 21.9 71.5 34 5.5 42
11:10 1022 30.18 851 25.13 22.1 71.8 34 5.9 42.6
11:15 1022 30.18 851 25.13 22.2 71.9 34 6 42.7
11:20 1022 30.18 851 25.13 23 73.3 33 6 42.8
11:25 1022 30.18 851 25.13 22.7 72.9 34 6.4 43.5
11:30 1022 30.18 851 25.13 23 73.4 35 7.1 44.7
11:35 1022 30.18 851 25.13 22.8 73 35 6.6 43.8
11:40 1022 30.18 851 25.13 23 73.3 33 6 42.8
11:45 1021 30.15 851 25.13 23 73.3 34 6.3 43.4
11:50 1021 30.15 851 25.13 22.7 72.8 34 6.2 43.2
11:55 1021 30.15 851 25.13 22.5 72.5 34 5.9 42.5
12:00 1021 30.15 851 25.13 23.2 73.8 32 6 42.8
12:05 1021 30.15 851 25.13 23.6 74.5 30 5.3 41.5
12:10 1021 30.15 851 25.13 24 75.1 30 5.4 41.7
12:15 1021 30.15 851 25.13 24.1 75.4 31 6 42.8
12:20 1021 30.15 850 25.1 24 75.2 28 4.5 40.1
12:25 1021 30.15 850 25.1 24.1 75.4 29 5.3 41.5
12:30 1021 30.15 850 25.1 24.1 75.4 28 4.4 40
12:35 1021 30.15 850 25.1 24.9 76.9 27 5 41
12:40 1021 30.15 850 25.1 25.1 77.2 26 4.4 40
12:45 1021 30.15 850 25.1 25.1 77.2 26 4.5 40.2
12:50 1021 30.15 850 25.1 25.4 77.7 26 5 41
12:55 1021 30.15 850 25.1 25.5 77.9 26 4.9 40.8
13:00 1021 30.15 850 25.1 25.6 78.1 26 4.8 40.7
13:05 1021 30.15 850 25.1 25.9 78.6 26 5.3 41.6
13:10 1021 30.15 850 25.1 25.4 77.6 28 5.7 42.3
13:15 1021 30.15 850 25.1 25 77 28 5.4 41.7
13:20 1021 30.15 850 25.1 24.8 76.7 28 5.2 41.3
13:25 1021 30.15 850 25.1 24.6 76.2 28 5.2 41.4
13:30 1020 30.12 850 25.1 24.8 76.7 27 5 41
13:35 1020 30.12 850 25.1 25.3 77.5 25 4.1 39.4
13:40 1020 30.12 850 25.1 26.3 79.4 24 4.7 40.5
13:45 1020 30.12 849 25.07 26.3 79.3 25 5.1 41.1
13:50 1020 30.12 849 25.07 26.5 79.7 24 4.3 39.8
13:55 1020 30.12 849 25.07 26.5 79.7 24 4.5 40
14:00 1020 30.12 849 25.07 26.8 80.2 24 4.6 40.4
14:05 1020 30.12 849 25.07 27.5 81.5 24 5.2 41.4
14:10 1020 30.12 849 25.07 26.5 79.7 24 4.6 40.2
14:15 1020 30.12 849 25.07 26.8 80.2 22 3.5 38.3
14:20 1020 30.12 849 25.07 26.9 80.5 21 2.9 37.2
14:25 1020 30.12 849 25.07 26.6 79.9 22 3.5 38.3
14:30 1020 30.12 849 25.07 27.7 81.8 22 4.2 39.6
14:35 1020 30.12 849 25.07 26.9 80.4 23 4.1 39.4
14:40 1020 30.12 849 25.07 26.8 80.2 21 3.2 37.8
14:45 1020 30.12 849 25.07 27 80.7 21 3.1 37.6
14:50 1020 30.12 849 25.07 27.2 81 21 3.1 37.6
14:55 1020 30.12 849 25.07 27.9 82.3 21 3.9 39.1
15:00 1020 30.12 849 25.07 28.4 83.2 18 2 35.6
15:05 1019 30.09 849 25.07 28 82.3 21 3.6 38.5
15:10 1019 30.09 849 25.07 28.3 83 18 2.3 36.1
15:15 1019 30.09 849 25.07 28.4 83.2 20 3.3 38
15:20 1019 30.09 848 25.04 28.2 82.7 19 2.4 36.3
15:25 1019 30.09 848 25.04 28.2 82.7 20 3.1 37.6
15:30 1019 30.09 848 25.04 27.9 82.3 19 2.5 36.5
15:35 1019 30.09 848 25.04 28.2 82.7 18 1.7 35
15:40 1019 30.09 848 25.04 28.3 83 18 1.7 35
15:45 1019 30.09 848 25.04 28.4 83.1 17 1.2 34.1
15:50 1019 30.09 848 25.04 28.4 83.2 18 1.8 35.3
15:55 1019 30.09 848 25.04 28.3 82.9 15 -0.8 30.6
16:00 1019 30.09 848 25.04 28.1 82.5 15 -0.9 30.4
16:05 1019 30.09 848 25.04 28.4 83.2 15 -0.1 31.8
16:10 1019 30.09 848 25.04 28.8 83.8 14 -1 30.2
16:15 1019 30.09 848 25.04 29.1 84.3 15 0.4 32.6
16:20 1019 30.09 848 25.04 29 84.1 14 -0.7 30.8
16:25 1019 30.09 848 25.04 29.3 84.7 14 -0.4 31.4
16:30 1019 30.09 848 25.04 29.4 84.9 14 -0.1 31.8
16:35 1019 30.09 848 25.04 28.9 83.9 14 -0.6 30.9
16:40 1019 30.09 848 25.04 29.2 84.6 14 -0.7 30.8
16:45 1019 30.09 848 25.04 29.7 85.4 14 0.1 32.1
16:50 1018 30.06 848 25.04 29.6 85.2 14 -0.3 31.4
16:55 1018 30.06 848 25.04 29.5 85.1 14 -0.7 30.7
17:00 1018 30.06 848 25.04 29.7 85.4 14 -0.4 31.3
17:05 1018 30.06 847 25.01 29.3 84.8 14 -0.2 31.6
17:10 1018 30.06 847 25.01 29.8 85.6 14 0.1 32.2
17:15 1018 30.06 847 25.01 29.2 84.5 14 -0.8 30.6
17:20 1018 30.06 847 25.01 28.4 83.1 16 0.1 32.1
17:25 1018 30.06 847 25.01 28.6 83.4 15 -0.2 31.7
17:30 1018 30.06 847 25.01 28.7 83.6 15 -0.6 30.9
17:35 1018 30.06 847 25.01 28.5 83.4 15 -0.7 30.8
17:40 1018 30.06 847 25.01 28.7 83.7 15 -0.6 30.9
17:45 1018 30.06 847 25.01 29.1 84.4 15 -0.2 31.6
17:50 1018 30.06 847 25.01 29 84.2 15 0.2 32.3
17:55 1018 30.06 847 25.01 29.1 84.3 15 0 32
18:00 1018 30.06 847 25.01 29.3 84.8 15 0.4 32.8
18:05 1018 30.06 847 25.01 28.9 84 14 -0.6 30.9
18:10 1018 30.06 847 25.01 28.8 83.8 15 -0.2 31.6
18:15 1018 30.06 847 25.01 28.6 83.4 14 -1 30.2
18:20 1018 30.06 847 25.01 27.8 82 15 -1.3 29.7
18:25 1018 30.06 847 25.01 27.4 81.3 15 -1.1 29.9
18:30 1018 30.06 847 25.01 27.4 81.2 17 0.5 33
18:35 1018 30.06 847 25.01 27.4 81.3 15 -1.1 30
18:40 1018 30.06 847 25.01 27.3 81.2 15 -1 30.2
18:45 1018 30.06 847 25.01 27.2 80.9 17 0.4 32.7
18:50 1018 30.06 847 25.01 27.2 81 17 0.4 32.6
18:55 1018 30.06 847 25.01 27.2 80.9 18 0.8 33.5
19:00 1018 30.06 847 25.01 27.1 80.7 15 -1.1 30.1
19:05 1018 30.06 847 25.01 26.9 80.5 18 0.6 33
19:10 1018 30.06 847 25.01 26.9 80.5 15 -1.5 29.4
19:15 1018 30.06 847 25.01 27 80.6 15 -1.6 29.1
19:20 1018 30.06 847 25.01 26.9 80.5 15 -1.3 29.6
19:25 1018 30.06 847 25.01 26.5 79.6 24 4.4 40
19:30 1018 30.06 847 25.01 25.9 78.6 26 4.9 40.8
19:35 1018 30.06 847 25.01 25.5 77.8 27 5.2 41.3
19:40 1018 30.06 847 25.01 25.1 77.1 27 4.7 40.5
19:45 1018 30.06 847 25.01 24.9 76.9 26 4.2 39.6
19:50 1018 30.06 847 25.01 24.4 76 35 8.2 46.8
19:55 1018 30.06 847 25.01 23.4 74.1 35 7.4 45.4
20:00 1018 30.06 847 25.01 22.4 72.4 37 7.3 45.2
20:05 1018 30.06 847 25.01 21.9 71.4 34 5.5 41.9
20:10 1018 30.06 847 25.01 21.8 71.2 36 6.3 43.3
20:15 1018 30.06 847 25.01 21.5 70.8 36 6.1 43
20:20 1018 30.06 847 25.01 21.1 70 36 5.4 41.8
20:25 1018 30.06 847 25.01 20.6 69 39 6.4 43.5
20:30 1018 30.06 847 25.01 19.9 67.7 40 6.1 42.9
20:35 1018 30.06 847 25.01 19.5 67.1 41 6.1 42.9
20:40 1018 30.06 847 25.01 19.2 66.6 40 5.4 41.8
20:45 1018 30.06 847 25.01 19 66.3 37 4 39.2
20:50 1018 30.06 847 25.01 19.1 66.4 33 2.8 37
20:55 1018 30.06 848 25.04 19.9 67.9 32 3 37.5
21:00 1018 30.06 848 25.04 20.2 68.3 35 4.3 39.7
21:05 1018 30.06 848 25.04 20 67.9 34 3.6 38.6
21:10 1018 30.06 848 25.04 20 67.9 31 2.7 36.9
21:15 1019 30.09 848 25.04 19.7 67.5 33 3.3 38
21:20 1019 30.09 848 25.04 19.2 66.5 34 3.2 37.7
21:25 1019 30.09 848 25.04 19 66.3 34 3.1 37.6
21:30 1019 30.09 848 25.04 19.1 66.4 33 2.6 36.6
21:35 1019 30.09 848 25.04 19.5 67 32 2.5 36.5
21:40 1019 30.09 848 25.04 19.5 67.2 32 2.8 37
21:45 1019 30.09 848 25.04 19.5 67.2 33 2.9 37.2
21:50 1019 30.09 848 25.04 19.2 66.5 37 4.2 39.5
21:55 1019 30.09 848 25.04 18.9 66 35 3.1 37.7
22:00 1019 30.09 848 25.04 18.8 65.8 34 2.8 37
22:05 1019 30.09 848 25.04 19 66.2 34 2.9 37.2
22:10 1019 30.09 848 25.04 19.4 66.9 33 2.7 36.8
22:15 1019 30.09 848 25.04 19.6 67.2 33 2.9 37.3
22:20 1019 30.09 848 25.04 19.4 66.9 34 3.1 37.6
22:25 1019 30.09 848 25.04 19.2 66.6 34 3.1 37.7
22:30 1019 30.09 848 25.04 19 66.2 36 3.7 38.7
22:35 1019 30.09 848 25.04 18.8 65.8 36 3.7 38.7
22:40 1019 30.09 848 25.04 19.2 66.6 37 4.2 39.5
22:45 1019 30.09 848 25.04 19.3 66.7 35 3.5 38.2
22:50 1019 30.09 848 25.04 19.8 67.7 29 1.5 34.7
22:55 1019 30.09 848 25.04 21.3 70.3 32 4.2 39.6
23:00 1019 30.09 849 25.07 20.1 68.1 34 4.1 39.3
23:05 1019 30.09 848 25.04 20.3 68.6 28 1.4 34.6
23:10 1019 30.09 848 25.04 22.5 72.5 26 2.3 36.1
23:15 1019 30.09 848 25.04 22.1 71.8 31 4.4 39.9
23:20 1019 30.09 848 25.04 20.7 69.2 33 4 39.3
23:25 1019 30.09 848 25.04 20.4 68.6 34 4 39.2
23:30 1019 30.09 848 25.04 20 67.9 33 3.3 37.9
23:35 1019 30.09 848 25.04 20.1 68.2 32 3.2 37.7
23:40 1019 30.09 848 25.04 20.4 68.6 33 3.5 38.3
23:45 1019 30.09 848 25.04 20.3 68.6 31 3 37.4
23:50 1019 30.09 848 25.04 20.6 69 32 3.4 38.1
23:55 1019 30.09 848 25.04 20.1 68.1 33 3.5 38.3
24:00 1019 30.09 848 25.04 19.6 67.2 43 6.6 44